Time;durP1;ratioP1;P1;durP2;ratioP2;P2;SDS_P1;SDS_P2;PMS_P1;PMS_P2;Temp;Humidity;BMP_temperature;BMP_pressure;BME280_temperature;BME280_humidity;BME280_pressure;Samples;Min_cycle;Max_cycle;Signal;HPM_P1;HPM_P2
2023/09/14 00:00:43;;;;;;;;;;;23.60;93.50;;;;;;5014106;28;20280;-53
2023/09/14 00:03:08;;;;;;;;;;;23.60;93.50;;;;;;5014709;28;20375;-53
2023/09/14 00:05:40;;;;;;;;;;;23.60;93.50;;;;;;5014072;28;20016;-51
2023/09/14 00:08:05;;;;;;;;;;;23.60;93.50;;;;;;5014573;28;19914;-53
2023/09/14 00:10:32;;;;;;;;;;;23.60;93.50;;;;;;5014299;28;19909;-52
2023/09/14 00:12:57;;;;;;;;;;;23.60;93.50;;;;;;5014039;28;19914;-52
2023/09/14 00:15:23;;;;;;;;;;;23.60;93.50;;;;;;5014260;28;19963;-53
2023/09/14 00:17:49;;;;;;;;;;;23.60;93.50;;;;;;5014172;28;19935;-53
2023/09/14 00:20:40;;;;;;;;;;;23.60;93.50;;;;;;5014528;28;20396;-52
2023/09/14 00:23:06;;;;;;;;;;;23.60;93.50;;;;;;5012113;28;20262;-52
2023/09/14 00:25:31;;;;;;;;;;;23.60;93.50;;;;;;5014158;28;19922;-50
2023/09/14 00:27:57;;;;;;;;;;;23.60;93.50;;;;;;5016408;28;19916;-49
2023/09/14 00:30:22;;;;;;;;;;;23.60;93.50;;;;;;5018186;28;19954;-50
2023/09/14 00:32:50;;;;;;;;;;;23.50;93.40;;;;;;5017881;28;20003;-54
2023/09/14 00:35:16;;;;;;;;;;;23.60;93.50;;;;;;5018038;28;20276;-52
2023/09/14 00:37:42;;;;;;;;;;;23.60;93.50;;;;;;5017930;28;19910;-52
2023/09/14 00:40:08;;;;;;;;;;;23.60;93.50;;;;;;5017679;28;19917;-51
2023/09/14 00:42:44;;;;;;;;;;;23.60;93.50;;;;;;5017720;28;19976;-52
2023/09/14 00:45:12;;;;;;;;;;;23.60;93.50;;;;;;5017829;28;20037;-49
2023/09/14 00:47:38;;;;;;;;;;;23.60;93.50;;;;;;5017922;28;19928;-51
2023/09/14 00:50:04;;;;;;;;;;;23.60;93.50;;;;;;5017798;28;19920;-49
2023/09/14 00:52:30;;;;;;;;;;;23.60;93.50;;;;;;5017703;28;19916;-51
2023/09/14 00:54:56;;;;;;;;;;;23.60;93.50;;;;;;5017501;28;20335;-52
2023/09/14 00:57:21;;;;;;;;;;;23.60;93.50;;;;;;5017410;28;19910;-51
2023/09/14 00:59:47;;;;;;;;;;;23.50;93.40;;;;;;5017592;28;19916;-51
2023/09/14 01:02:13;;;;;;;;;;;23.60;93.40;;;;;;5017895;28;20384;-51
2023/09/14 01:04:40;;;;;;;;;;;23.50;93.40;;;;;;5017368;28;19918;-51
2023/09/14 01:07:05;;;;;;;;;;;23.50;93.40;;;;;;5017533;28;20012;-52
2023/09/14 01:09:31;;;;;;;;;;;23.50;93.40;;;;;;5032783;28;20336;-55
2023/09/14 01:11:57;;;;;;;;;;;23.50;93.40;;;;;;5017476;28;19995;-53
2023/09/14 01:14:25;;;;;;;;;;;23.50;93.40;;;;;;5017316;28;19909;-52
2023/09/14 01:16:55;;;;;;;;;;;23.50;93.40;;;;;;5017274;28;19913;-51
2023/09/14 01:19:33;;;;;;;;;;;23.50;93.40;;;;;;5017292;28;20272;-54
2023/09/14 01:22:16;;;;;;;;;;;23.50;93.40;;;;;;5017280;28;20272;-50
2023/09/14 01:24:42;;;;;;;;;;;23.50;93.40;;;;;;5017070;28;20017;-50
2023/09/14 01:27:08;;;;;;;;;;;23.50;93.40;;;;;;5017459;28;19920;-51
2023/09/14 01:29:33;;;;;;;;;;;23.50;93.40;;;;;;5017068;28;19910;-50
2023/09/14 01:31:59;;;;;;;;;;;23.50;93.40;;;;;;5017020;28;19916;-51
2023/09/14 01:34:24;;;;;;;;;;;23.50;93.40;;;;;;5016663;28;19991;-52
2023/09/14 01:36:56;;;;;;;;;;;23.50;93.40;;;;;;5016962;28;19921;-52
2023/09/14 01:39:23;;;;;;;;;;;23.50;93.40;;;;;;5015153;28;19916;-51
2023/09/14 01:41:54;;;;;;;;;;;23.50;93.40;;;;;;5016860;28;19916;-49
2023/09/14 01:44:21;;;;;;;;;;;23.50;93.40;;;;;;5016512;28;20424;-51
2023/09/14 01:46:47;;;;;;;;;;;23.50;93.40;;;;;;5016500;28;19909;-51
2023/09/14 01:49:13;;;;;;;;;;;23.50;93.40;;;;;;5032062;28;20272;-52
2023/09/14 01:51:39;;;;;;;;;;;23.50;93.40;;;;;;5016703;28;20004;-50
2023/09/14 01:54:05;;;;;;;;;;;23.50;93.40;;;;;;5016270;28;20004;-50
2023/09/14 01:56:30;;;;;;;;;;;23.40;93.40;;;;;;5016319;28;19909;-52
2023/09/14 01:58:55;;;;;;;;;;;23.50;93.50;;;;;;5016819;28;19921;-51
2023/09/14 02:01:21;;;;;;;;;;;23.40;93.70;;;;;;5016448;28;19913;-52
2023/09/14 02:03:46;;;;;;;;;;;23.40;93.40;;;;;;5016098;28;19932;-50
2023/09/14 02:06:12;;;;;;;;;;;23.50;93.50;;;;;;5016394;28;19955;-51
2023/09/14 02:08:37;;;;;;;;;;;23.50;93.40;;;;;;5016687;28;19910;-54
2023/09/14 02:11:03;;;;;;;;;;;23.40;93.40;;;;;;5016319;28;19910;-49
2023/09/14 02:13:29;;;;;;;;;;;23.40;93.40;;;;;;5016376;28;19916;-53
2023/09/14 02:15:54;;;;;;;;;;;23.40;93.40;;;;;;5015944;28;19909;-48
2023/09/14 02:18:19;;;;;;;;;;;23.40;93.40;;;;;;5016179;28;19910;-51
2023/09/14 02:20:45;;;;;;;;;;;23.40;93.40;;;;;;5016167;28;19914;-52
2023/09/14 02:23:10;;;;;;;;;;;23.40;93.40;;;;;;5016094;28;19910;-51
2023/09/14 02:25:36;;;;;;;;;;;23.40;93.40;;;;;;5015684;28;19918;-55
2023/09/14 02:28:02;;;;;;;;;;;23.40;93.50;;;;;;5015822;28;19909;-51
2023/09/14 02:30:28;;;;;;;;;;;23.40;93.50;;;;;;5015951;28;19909;-52
2023/09/14 02:32:53;;;;;;;;;;;23.40;93.50;;;;;;5015926;28;20319;-52
2023/09/14 02:35:18;;;;;;;;;;;23.40;93.50;;;;;;5015882;28;19909;-53
2023/09/14 02:37:44;;;;;;;;;;;23.40;93.50;;;;;;5015508;28;19916;-53
2023/09/14 02:40:10;;;;;;;;;;;23.40;93.50;;;;;;5015858;28;20367;-53
2023/09/14 02:42:37;;;;;;;;;;;23.40;93.50;;;;;;5015497;28;19913;-52
2023/09/14 02:45:04;;;;;;;;;;;23.40;93.60;;;;;;5015616;28;19922;-50
2023/09/14 02:47:29;;;;;;;;;;;23.40;93.50;;;;;;5015158;28;19953;-50
2023/09/14 02:49:55;;;;;;;;;;;23.40;93.60;;;;;;5015216;28;19910;-52
2023/09/14 02:52:20;;;;;;;;;;;23.40;93.60;;;;;;5015600;28;20340;-51
2023/09/14 02:54:45;;;;;;;;;;;23.40;93.60;;;;;;5015489;28;19914;-49
2023/09/14 02:57:11;;;;;;;;;;;23.40;93.50;;;;;;5015178;28;20356;-51
2023/09/14 02:59:36;;;;;;;;;;;23.40;93.60;;;;;;5015129;28;19987;-51
2023/09/14 03:02:02;;;;;;;;;;;23.40;93.60;;;;;;5015396;28;19959;-51
2023/09/14 03:04:27;;;;;;;;;;;23.40;93.60;;;;;;5015238;28;19918;-53
2023/09/14 03:06:54;;;;;;;;;;;23.40;93.60;;;;;;5014967;28;19909;-50
2023/09/14 03:09:19;;;;;;;;;;;23.40;93.60;;;;;;5014936;28;19910;-51
2023/09/14 03:11:45;;;;;;;;;;;23.40;93.60;;;;;;5014919;28;20020;-49
2023/09/14 03:14:11;;;;;;;;;;;23.40;93.60;;;;;;5014786;28;20008;-55
2023/09/14 03:16:37;;;;;;;;;;;23.40;93.60;;;;;;5014752;28;19909;-49
2023/09/14 03:19:03;;;;;;;;;;;23.40;93.60;;;;;;5015049;28;19916;-50
2023/09/14 03:21:29;;;;;;;;;;;23.40;93.60;;;;;;5014990;28;20024;-51
2023/09/14 03:23:55;;;;;;;;;;;23.30;93.60;;;;;;5014891;28;19925;-53
2023/09/14 03:26:22;;;;;;;;;;;23.30;93.60;;;;;;5014842;28;19916;-52
2023/09/14 03:28:49;;;;;;;;;;;23.40;93.60;;;;;;5014853;28;19957;-54
2023/09/14 03:31:15;;;;;;;;;;;23.30;93.60;;;;;;5014757;28;19920;-52
2023/09/14 03:33:41;;;;;;;;;;;23.30;93.60;;;;;;5014710;28;19945;-51
2023/09/14 03:36:06;;;;;;;;;;;23.30;93.60;;;;;;5014422;28;19909;-50
2023/09/14 03:38:32;;;;;;;;;;;23.30;93.60;;;;;;5014768;28;19909;-53
2023/09/14 03:40:57;;;;;;;;;;;23.30;93.60;;;;;;5014718;28;19910;-53
2023/09/14 03:43:23;;;;;;;;;;;23.30;93.60;;;;;;5014439;28;20273;-51
2023/09/14 03:45:49;;;;;;;;;;;23.30;93.60;;;;;;5014624;28;19963;-50
2023/09/14 03:48:14;;;;;;;;;;;23.30;93.60;;;;;;5014880;28;19976;-51
2023/09/14 03:50:40;;;;;;;;;;;23.30;93.60;;;;;;5029811;28;19913;-48
2023/09/14 03:53:06;;;;;;;;;;;23.30;93.60;;;;;;5014314;28;19913;-52
2023/09/14 03:55:31;;;;;;;;;;;23.30;93.60;;;;;;5014541;28;19967;-50
2023/09/14 03:57:57;;;;;;;;;;;23.30;93.70;;;;;;5014508;28;19913;-51
2023/09/14 04:00:22;;;;;;;;;;;23.30;93.70;;;;;;5014569;28;19946;-52
2023/09/14 04:02:48;;;;;;;;;;;23.30;93.70;;;;;;5013394;28;19910;-52
2023/09/14 04:05:14;;;;;;;;;;;23.30;93.70;;;;;;5014267;28;19918;-51
2023/09/14 04:07:40;;;;;;;;;;;23.30;93.70;;;;;;5014419;28;19910;-52
2023/09/14 04:10:09;;;;;;;;;;;23.30;93.70;;;;;;5014419;28;19913;-53
2023/09/14 04:12:36;;;;;;;;;;;23.30;93.70;;;;;;5013992;28;19917;-49
2023/09/14 04:15:01;;;;;;;;;;;23.30;93.70;;;;;;5013871;28;20372;-52
2023/09/14 04:17:28;;;;;;;;;;;23.30;93.70;;;;;;5014294;28;19946;-51
2023/09/14 04:19:53;;;;;;;;;;;23.30;93.70;;;;;;5014161;28;19909;-54
2023/09/14 04:22:19;;;;;;;;;;;23.30;93.70;;;;;;5013963;28;19932;-52
2023/09/14 04:24:44;;;;;;;;;;;23.30;93.70;;;;;;5014057;28;19973;-51
2023/09/14 04:27:10;;;;;;;;;;;23.30;93.70;;;;;;5013857;28;19910;-48
2023/09/14 04:29:35;;;;;;;;;;;23.30;93.70;;;;;;5013842;28;19920;-53
2023/09/14 04:32:01;;;;;;;;;;;23.30;93.70;;;;;;5013986;28;19910;-52
2023/09/14 04:34:26;;;;;;;;;;;23.30;93.70;;;;;;5013758;28;19956;-53
2023/09/14 04:36:52;;;;;;;;;;;23.30;93.70;;;;;;5013752;28;19952;-53
2023/09/14 04:39:18;;;;;;;;;;;23.30;93.70;;;;;;5014014;28;19910;-50
2023/09/14 04:41:43;;;;;;;;;;;23.20;93.70;;;;;;5013650;28;19909;-52
2023/09/14 04:44:09;;;;;;;;;;;23.30;93.70;;;;;;5012600;28;19910;-50
2023/09/14 04:46:34;;;;;;;;;;;23.30;93.70;;;;;;5013494;28;19932;-51
2023/09/14 04:49:00;;;;;;;;;;;23.20;93.70;;;;;;5014087;28;19910;-51
2023/09/14 04:51:26;;;;;;;;;;;23.20;93.70;;;;;;5013833;28;20276;-52
2023/09/14 04:53:52;;;;;;;;;;;23.20;93.80;;;;;;5013914;28;20390;-51
2023/09/14 04:56:18;;;;;;;;;;;23.20;93.70;;;;;;5013466;28;19991;-48
2023/09/14 04:58:44;;;;;;;;;;;23.20;93.80;;;;;;5013899;28;19916;-51
2023/09/14 05:01:09;;;;;;;;;;;23.20;93.80;;;;;;5013847;28;19909;-53
2023/09/14 05:03:39;;;;;;;;;;;23.20;93.80;;;;;;5027749;28;21247;-48
2023/09/14 05:06:05;;;;;;;;;;;23.20;93.80;;;;;;5013045;28;19913;-51
2023/09/14 05:08:30;;;;;;;;;;;23.20;93.80;;;;;;5013248;28;19968;-54
2023/09/14 05:10:56;;;;;;;;;;;23.20;93.80;;;;;;5013805;28;19913;-53
2023/09/14 05:13:22;;;;;;;;;;;23.20;93.80;;;;;;5014622;28;19956;-53
2023/09/14 05:15:48;;;;;;;;;;;23.20;93.80;;;;;;5017261;28;19980;-48
2023/09/14 05:18:13;;;;;;;;;;;23.20;93.80;;;;;;5016006;28;19909;-51
2023/09/14 05:20:47;;;;;;;;;;;23.20;93.80;;;;;;5017487;28;19909;-50
2023/09/14 05:23:12;;;;;;;;;;;23.20;93.80;;;;;;5016967;28;19952;-49
2023/09/14 05:25:38;;;;;;;;;;;23.20;93.80;;;;;;5016816;28;20360;-52
2023/09/14 05:28:03;;;;;;;;;;;23.20;93.80;;;;;;5016617;28;19921;-52
2023/09/14 05:30:29;;;;;;;;;;;23.20;93.90;;;;;;5032202;28;20078;-52
2023/09/14 05:32:54;;;;;;;;;;;23.20;93.90;;;;;;5016643;28;19916;-52
2023/09/14 05:35:20;;;;;;;;;;;23.20;93.80;;;;;;5017064;28;19916;-50
2023/09/14 05:37:46;;;;;;;;;;;23.20;93.90;;;;;;5016452;28;20495;-50
2023/09/14 05:40:12;;;;;;;;;;;23.20;93.90;;;;;;5016443;28;19916;-51
2023/09/14 05:42:38;;;;;;;;;;;23.20;93.90;;;;;;5016445;28;20352;-53
2023/09/14 05:45:07;;;;;;;;;;;23.20;93.90;;;;;;5016422;28;20258;-52
2023/09/14 05:47:32;;;;;;;;;;;23.20;93.90;;;;;;5016511;28;19922;-52
2023/09/14 05:49:57;;;;;;;;;;;23.20;93.90;;;;;;5016747;28;19960;-52
2023/09/14 05:52:23;;;;;;;;;;;23.20;93.90;;;;;;5016459;28;19916;-52
2023/09/14 05:54:49;;;;;;;;;;;23.20;93.90;;;;;;5016035;28;19909;-52
2023/09/14 05:57:14;;;;;;;;;;;23.20;93.90;;;;;;5016377;28;19917;-51
2023/09/14 05:59:43;;;;;;;;;;;23.20;93.90;;;;;;5016350;28;20345;-50
2023/09/14 06:02:08;;;;;;;;;;;23.20;93.90;;;;;;5015938;28;19910;-52
2023/09/14 06:04:34;;;;;;;;;;;23.10;93.90;;;;;;5016101;28;20245;-52
2023/09/14 06:07:00;;;;;;;;;;;23.10;93.90;;;;;;5030073;28;20374;-54
2023/09/14 06:09:26;;;;;;;;;;;23.10;93.90;;;;;;5034122;28;20343;-51
2023/09/14 06:11:52;;;;;;;;;;;23.10;93.90;;;;;;5036158;28;19970;-52
2023/09/14 06:14:17;;;;;;;;;;;23.10;93.90;;;;;;5035637;28;20263;-52
2023/09/14 06:16:43;;;;;;;;;;;23.10;94.00;;;;;;5035652;28;19909;-50
2023/09/14 06:19:08;;;;;;;;;;;23.10;94.00;;;;;;5050956;28;19913;-51
2023/09/14 06:21:34;;;;;;;;;;;23.10;94.00;;;;;;5035674;28;20360;-53
2023/09/14 06:23:59;;;;;;;;;;;23.10;94.00;;;;;;5035050;28;20020;-53
2023/09/14 06:26:28;;;;;;;;;;;23.10;94.00;;;;;;5035256;28;19920;-51
2023/09/14 06:28:54;;;;;;;;;;;23.10;94.00;;;;;;5034948;28;19939;-47
2023/09/14 06:31:19;;;;;;;;;;;23.10;94.10;;;;;;5035166;28;19909;-48
2023/09/14 06:33:45;;;;;;;;;;;23.10;94.10;;;;;;5035320;28;19910;-52
2023/09/14 06:36:10;;;;;;;;;;;23.10;94.10;;;;;;5035284;28;19909;-51
2023/09/14 06:38:35;;;;;;;;;;;23.10;94.10;;;;;;5039684;28;20336;-52
2023/09/14 06:41:01;;;;;;;;;;;23.10;94.20;;;;;;5033826;28;19984;-50
2023/09/14 06:43:26;;;;;;;;;;;23.10;94.20;;;;;;5034121;28;19916;-56
2023/09/14 06:45:52;;;;;;;;;;;23.10;94.20;;;;;;5050750;28;19921;-52
2023/09/14 06:48:17;;;;;;;;;;;23.10;94.20;;;;;;5054297;28;19921;-51
2023/09/14 06:50:43;;;;;;;;;;;23.10;94.00;;;;;;5050545;28;19924;-51
2023/09/14 06:53:09;;;;;;;;;;;23.00;93.30;;;;;;5032239;28;19914;-49
2023/09/14 06:55:37;;;;;;;;;;;23.00;92.60;;;;;;5033584;28;20280;-52
2023/09/14 06:58:02;;;;;;;;;;;23.00;92.70;;;;;;5032720;28;19992;-50
2023/09/14 07:00:28;;;;;;;;;;;23.00;93.20;;;;;;5033737;28;19956;-51
2023/09/14 07:02:53;;;;;;;;;;;23.00;92.90;;;;;;5043754;28;19939;-53
2023/09/14 07:05:19;;;;;;;;;;;23.00;93.10;;;;;;5032940;28;19927;-52
2023/09/14 07:07:44;;;;;;;;;;;23.00;93.30;;;;;;5014350;28;20265;-53
2023/09/14 07:10:10;;;;;;;;;;;23.00;93.50;;;;;;5014903;28;20357;-52
2023/09/14 07:12:36;;;;;;;;;;;23.00;93.50;;;;;;5014896;28;19913;-52
2023/09/14 07:15:02;;;;;;;;;;;23.00;93.60;;;;;;5014927;28;19909;-49
2023/09/14 07:17:28;;;;;;;;;;;23.00;93.70;;;;;;5014437;28;20313;-50
2023/09/14 07:19:53;;;;;;;;;;;23.00;93.70;;;;;;5014501;28;19956;-53
2023/09/14 07:22:19;;;;;;;;;;;23.00;93.70;;;;;;5014700;28;19909;-54
2023/09/14 07:24:44;;;;;;;;;;;23.00;93.80;;;;;;5014331;28;19917;-52
2023/09/14 07:27:10;;;;;;;;;;;22.90;93.80;;;;;;5014358;28;19910;-52
2023/09/14 07:29:35;;;;;;;;;;;22.90;93.80;;;;;;5014821;28;20321;-53
2023/09/14 07:32:01;;;;;;;;;;;23.00;93.90;;;;;;5014403;28;19910;-52
2023/09/14 07:34:27;;;;;;;;;;;22.90;93.90;;;;;;5014495;28;20376;-48
2023/09/14 07:36:52;;;;;;;;;;;23.00;93.90;;;;;;5014356;28;19995;-51
2023/09/14 07:39:18;;;;;;;;;;;22.90;93.90;;;;;;5014112;28;19910;-50
2023/09/14 07:41:43;;;;;;;;;;;22.90;93.90;;;;;;5014314;28;19909;-50
2023/09/14 07:44:09;;;;;;;;;;;22.90;94.00;;;;;;5014342;28;20284;-53
2023/09/14 07:46:35;;;;;;;;;;;22.90;94.00;;;;;;5014044;28;19910;-51
2023/09/14 07:49:00;;;;;;;;;;;22.90;94.00;;;;;;5014223;28;19909;-49
2023/09/14 07:51:26;;;;;;;;;;;22.90;94.00;;;;;;5014046;28;19913;-51
2023/09/14 07:53:53;;;;;;;;;;;22.90;94.00;;;;;;5014012;28;19909;-50
2023/09/14 07:56:18;;;;;;;;;;;22.90;94.10;;;;;;5014073;28;20384;-53
2023/09/14 07:58:44;;;;;;;;;;;22.90;94.10;;;;;;5029482;28;19977;-48
2023/09/14 08:01:09;;;;;;;;;;;22.90;94.10;;;;;;5013789;28;19910;-50
2023/09/14 08:03:35;;;;;;;;;;;22.90;94.10;;;;;;5013963;28;20004;-49
2023/09/14 08:06:00;;;;;;;;;;;22.90;94.20;;;;;;5014174;28;20352;-52
2023/09/14 08:08:26;;;;;;;;;;;22.90;94.20;;;;;;5013885;28;19925;-52
2023/09/14 08:10:52;;;;;;;;;;;22.90;94.40;;;;;;5013814;28;19909;-51
2023/09/14 08:13:18;;;;;;;;;;;22.90;94.20;;;;;;5014220;28;20280;-54
2023/09/14 08:15:44;;;;;;;;;;;22.90;94.20;;;;;;5014012;28;19932;-52
2023/09/14 08:18:09;;;;;;;;;;;22.90;94.20;;;;;;5013985;28;20371;-55
2023/09/14 08:20:38;;;;;;;;;;;22.90;94.20;;;;;;5013724;28;19916;-49
2023/09/14 08:23:04;;;;;;;;;;;22.90;94.20;;;;;;5013662;28;19956;-50
2023/09/14 08:25:29;;;;;;;;;;;22.90;94.20;;;;;;5013940;28;19917;-53
2023/09/14 08:27:56;;;;;;;;;;;22.90;94.20;;;;;;5013841;28;20284;-52
2023/09/14 08:30:22;;;;;;;;;;;22.90;94.40;;;;;;5013879;28;19964;-54
2023/09/14 08:32:48;;;;;;;;;;;22.90;94.10;;;;;;5013701;28;19909;-53
2023/09/14 08:35:24;;;;;;;;;;;22.90;94.10;;;;;;5013937;28;20007;-50
2023/09/14 08:37:52;;;;;;;;;;;22.90;94.10;;;;;;5013581;28;19910;-52
2023/09/14 08:40:18;;;;;;;;;;;22.90;94.00;;;;;;5014175;28;19910;-47
2023/09/14 08:42:47;;;;;;;;;;;22.90;94.10;;;;;;5015219;28;20369;-53
2023/09/14 08:45:14;;;;;;;;;;;22.90;94.20;;;;;;5033389;28;19913;-47
2023/09/14 08:47:41;;;;;;;;;;;22.90;94.20;;;;;;5037557;28;19928;-49
2023/09/14 08:50:07;;;;;;;;;;;22.90;94.00;;;;;;5051662;28;20371;-48
2023/09/14 08:52:34;;;;;;;;;;;22.90;93.90;;;;;;5056211;28;20297;-52
2023/09/14 08:55:00;;;;;;;;;;;22.90;94.00;;;;;;5041682;28;20031;-53
2023/09/14 08:57:25;;;;;;;;;;;22.90;94.00;;;;;;5057067;28;19959;-51
2023/09/14 08:59:51;;;;;;;;;;;22.90;94.00;;;;;;5033253;28;19917;-51
2023/09/14 09:02:18;;;;;;;;;;;22.90;94.10;;;;;;5035381;28;19920;-52
2023/09/14 09:04:44;;;;;;;;;;;22.90;94.10;;;;;;5028431;28;20026;-53
2023/09/14 09:07:09;;;;;;;;;;;22.90;94.10;;;;;;5056051;28;19955;-51
2023/09/14 09:09:36;;;;;;;;;;;22.90;94.10;;;;;;5051926;28;19939;-50
2023/09/14 09:12:01;;;;;;;;;;;23.00;94.10;;;;;;5039511;28;19980;-52
2023/09/14 09:14:30;;;;;;;;;;;22.90;94.10;;;;;;5054874;28;19917;-52
2023/09/14 09:16:57;;;;;;;;;;;22.90;94.10;;;;;;5048200;28;19932;-51
2023/09/14 09:19:22;;;;;;;;;;;22.90;94.10;;;;;;5039608;28;19920;-52
2023/09/14 09:21:47;;;;;;;;;;;22.90;94.10;;;;;;5055823;28;19909;-54
2023/09/14 09:24:24;;;;;;;;;;;22.90;94.10;;;;;;5040460;28;19920;-49
2023/09/14 09:26:50;;;;;;;;;;;22.90;94.10;;;;;;5041671;28;20368;-48
2023/09/14 09:29:16;;;;;;;;;;;22.90;94.10;;;;;;5037350;28;19944;-51
2023/09/14 09:31:43;;;;;;;;;;;23.00;94.10;;;;;;5046287;28;19920;-48
2023/09/14 09:34:09;;;;;;;;;;;22.90;94.10;;;;;;5043850;28;19919;-54
2023/09/14 09:36:35;;;;;;;;;;;22.90;94.10;;;;;;5036357;28;19916;-52
2023/09/14 09:39:04;;;;;;;;;;;22.90;94.10;;;;;;5039052;28;19937;-52
2023/09/14 09:41:33;;;;;;;;;;;22.90;94.10;;;;;;5039870;28;19915;-52
2023/09/14 09:43:59;;;;;;;;;;;22.90;94.10;;;;;;5037295;28;19912;-55
2023/09/14 09:46:24;;;;;;;;;;;22.90;94.10;;;;;;5036105;28;19914;-57
2023/09/14 09:48:50;;;;;;;;;;;23.00;94.10;;;;;;5040667;28;19936;-52
2023/09/14 09:51:19;;;;;;;;;;;22.90;94.10;;;;;;5038770;28;20016;-54
2023/09/14 09:54:04;;;;;;;;;;;23.00;94.10;;;;;;5052038;28;20007;-52
2023/09/14 09:56:29;;;;;;;;;;;22.90;94.10;;;;;;5055806;28;19905;-58
2023/09/14 09:58:55;;;;;;;;;;;22.90;94.10;;;;;;5047418;28;20008;-58
2023/09/14 10:01:20;;;;;;;;;;;23.00;94.10;;;;;;5035480;28;19967;-60
2023/09/14 10:03:49;;;;;;;;;;;23.00;94.20;;;;;;5035957;28;20379;-53
2023/09/14 10:06:14;;;;;;;;;;;23.00;94.20;;;;;;5035831;28;19913;-58
2023/09/14 10:08:40;;;;;;;;;;;23.00;94.20;;;;;;5045510;28;19912;-54
2023/09/14 10:11:06;;;;;;;;;;;23.00;94.20;;;;;;5055769;28;19915;-55
2023/09/14 10:13:31;;;;;;;;;;;23.00;94.20;;;;;;5055575;28;19995;-53
2023/09/14 10:15:58;;;;;;;;;;;23.00;94.20;;;;;;5055461;28;20278;-55
2023/09/14 10:18:28;;;;;;;;;;;23.00;94.20;;;;;;5037977;28;19943;-48
2023/09/14 10:20:55;;;;;;;;;;;23.00;94.20;;;;;;5055545;28;19904;-46
2023/09/14 10:23:21;;;;;;;;;;;23.00;94.20;;;;;;5055629;28;20010;-50
2023/09/14 10:25:47;;;;;;;;;;;23.00;94.20;;;;;;5054217;28;19967;-53
2023/09/14 10:28:14;;;;;;;;;;;23.00;94.20;;;;;;5055753;28;19905;-51
2023/09/14 10:30:39;;;;;;;;;;;23.00;94.20;;;;;;5055781;28;19904;-52
2023/09/14 10:33:06;;;;;;;;;;;23.00;94.20;;;;;;5055646;28;19927;-50
2023/09/14 10:35:32;;;;;;;;;;;23.00;94.20;;;;;;5046317;28;19911;-53
2023/09/14 10:37:59;;;;;;;;;;;23.00;94.20;;;;;;5035271;28;20264;-51
2023/09/14 10:40:27;;;;;;;;;;;23.00;94.20;;;;;;5035322;28;20370;-50
2023/09/14 10:42:52;;;;;;;;;;;23.00;94.20;;;;;;5035929;28;19905;-51
2023/09/14 10:45:19;;;;;;;;;;;23.00;94.20;;;;;;5035583;28;20413;-51
2023/09/14 10:47:47;;;;;;;;;;;23.00;94.20;;;;;;5035393;28;20036;-50
2023/09/14 10:50:14;;;;;;;;;;;23.00;94.20;;;;;;5035038;28;19905;-52
2023/09/14 10:52:41;;;;;;;;;;;23.00;94.20;;;;;;5035087;28;20316;-49
2023/09/14 10:55:10;;;;;;;;;;;23.00;94.30;;;;;;5035376;28;19909;-50
2023/09/14 10:57:37;;;;;;;;;;;23.00;94.30;;;;;;5035075;28;20380;-49
2023/09/14 11:00:05;;;;;;;;;;;23.00;94.20;;;;;;5039309;28;19915;-49
2023/09/14 11:02:36;;;;;;;;;;;23.00;94.20;;;;;;5055191;28;19912;-53
2023/09/14 11:05:21;;;;;;;;;;;23.00;94.20;;;;;;5055313;28;19912;-48
2023/09/14 11:07:53;;;;;;;;;;;23.00;94.20;;;;;;5054970;28;19904;-53
2023/09/14 11:10:20;;;;;;;;;;;23.00;94.20;;;;;;5054684;28;20356;-52
2023/09/14 11:12:46;;;;;;;;;;;23.00;94.10;;;;;;5054655;28;20263;-53
2023/09/14 11:15:16;;;;;;;;;;;23.00;94.10;;;;;;5035820;28;19910;-47
2023/09/14 11:17:41;;;;;;;;;;;23.00;94.10;;;;;;5052694;28;19905;-51
2023/09/14 11:20:33;;;;;;;;;;;23.00;94.10;;;;;;5046047;28;19963;-52
2023/09/14 11:23:01;;;;;;;;;;;23.00;94.20;;;;;;5030631;28;19913;-48
2023/09/14 11:25:28;;;;;;;;;;;23.00;94.20;;;;;;5034637;28;19913;-51
2023/09/14 11:27:55;;;;;;;;;;;23.00;94.20;;;;;;5034334;28;19996;-52
2023/09/14 11:30:21;;;;;;;;;;;23.00;94.20;;;;;;5034095;28;19905;-51
2023/09/14 11:32:47;;;;;;;;;;;23.00;94.20;;;;;;5033374;28;19923;-54
2023/09/14 11:35:13;;;;;;;;;;;23.00;94.10;;;;;;5034411;28;19906;-54
2023/09/14 11:37:41;;;;;;;;;;;23.00;94.10;;;;;;5034056;28;19959;-51
2023/09/14 11:40:10;;;;;;;;;;;23.00;94.00;;;;;;5034665;28;19909;-50
2023/09/14 11:42:55;;;;;;;;;;;23.00;94.20;;;;;;5034248;28;19916;-52
2023/09/14 11:45:21;;;;;;;;;;;23.00;94.50;;;;;;5034020;28;20368;-50
2023/09/14 11:47:47;;;;;;;;;;;23.00;94.30;;;;;;5043229;28;20356;-52
2023/09/14 11:50:13;;;;;;;;;;;23.00;94.30;;;;;;5013765;28;19913;-55
2023/09/14 11:52:38;;;;;;;;;;;23.00;94.20;;;;;;5015806;28;20004;-53
2023/09/14 11:55:04;;;;;;;;;;;23.00;94.20;;;;;;5014218;28;19910;-53
2023/09/14 11:57:30;;;;;;;;;;;23.00;94.10;;;;;;5013880;28;19952;-49
2023/09/14 11:59:55;;;;;;;;;;;23.00;94.10;;;;;;5014038;28;20288;-49
2023/09/14 12:02:21;;;;;;;;;;;23.00;94.20;;;;;;5014395;28;19909;-52
2023/09/14 12:04:48;;;;;;;;;;;23.00;94.20;;;;;;5021392;28;19929;-48
2023/09/14 12:07:14;;;;;;;;;;;23.00;94.10;;;;;;5017148;28;20348;-47
2023/09/14 12:09:40;;;;;;;;;;;23.00;94.10;;;;;;5045833;28;19913;-49
2023/09/14 12:12:06;;;;;;;;;;;23.00;94.00;;;;;;5053436;28;19919;-51
2023/09/14 12:14:43;;;;;;;;;;;23.00;94.00;;;;;;5028082;28;20337;-53
2023/09/14 12:17:22;;;;;;;;;;;23.00;93.90;;;;;;5028610;28;19913;-48
2023/09/14 12:19:51;;;;;;;;;;;23.00;94.00;;;;;;5026442;28;19913;-52
2023/09/14 12:22:18;;;;;;;;;;;23.10;94.00;;;;;;5030346;28;19919;-52
2023/09/14 12:24:44;;;;;;;;;;;23.00;94.00;;;;;;5028603;28;19924;-52
2023/09/14 12:27:10;;;;;;;;;;;23.00;94.10;;;;;;5051158;28;19912;-52
2023/09/14 12:29:35;;;;;;;;;;;23.00;93.90;;;;;;5038550;28;19911;-50
2023/09/14 12:32:01;;;;;;;;;;;23.00;94.00;;;;;;5014719;28;19920;-49
2023/09/14 12:34:26;;;;;;;;;;;23.00;93.80;;;;;;5029161;28;19909;-52
2023/09/14 12:36:52;;;;;;;;;;;23.00;93.80;;;;;;5053529;28;19909;-49
2023/09/14 12:39:17;;;;;;;;;;;23.00;93.80;;;;;;5040067;28;19909;-50
2023/09/14 12:41:43;;;;;;;;;;;23.00;93.80;;;;;;5023068;28;20288;-53
2023/09/14 12:44:09;;;;;;;;;;;23.00;94.00;;;;;;5013434;28;19909;-52
2023/09/14 12:46:34;;;;;;;;;;;23.00;93.90;;;;;;5013264;28;19918;-48
2023/09/14 12:49:00;;;;;;;;;;;23.00;94.00;;;;;;5013616;28;19914;-50
2023/09/14 12:51:26;;;;;;;;;;;23.00;94.00;;;;;;5026268;28;19987;-50
2023/09/14 12:53:54;;;;;;;;;;;23.00;94.10;;;;;;5033324;28;20056;-51
2023/09/14 12:56:21;;;;;;;;;;;23.00;94.10;;;;;;5033129;28;19910;-51
2023/09/14 12:58:46;;;;;;;;;;;23.00;94.10;;;;;;5043856;28;19913;-49
2023/09/14 13:01:12;;;;;;;;;;;23.00;93.80;;;;;;5052042;28;19909;-51
2023/09/14 13:03:38;;;;;;;;;;;23.00;93.50;;;;;;5052118;28;19934;-51
2023/09/14 13:06:04;;;;;;;;;;;23.00;93.40;;;;;;5052116;28;19913;-53
2023/09/14 13:08:41;;;;;;;;;;;23.00;93.50;;;;;;5052200;28;19995;-54
2023/09/14 13:11:19;;;;;;;;;;;23.00;93.60;;;;;;5052225;28;19908;-51
2023/09/14 13:13:46;;;;;;;;;;;23.00;93.60;;;;;;5034282;28;19952;-51
2023/09/14 13:16:15;;;;;;;;;;;23.00;93.70;;;;;;5052772;28;19909;-51
2023/09/14 13:18:40;;;;;;;;;;;23.00;93.70;;;;;;5052678;28;19963;-54
2023/09/14 13:21:08;;;;;;;;;;;23.00;93.70;;;;;;5053176;28;19917;-52
2023/09/14 13:23:35;;;;;;;;;;;23.00;93.80;;;;;;5053067;28;20296;-50
2023/09/14 13:26:00;;;;;;;;;;;23.00;93.80;;;;;;5052764;28;19913;-53
2023/09/14 13:28:25;;;;;;;;;;;23.00;93.70;;;;;;5052561;28;20348;-49
2023/09/14 13:30:51;;;;;;;;;;;23.00;93.90;;;;;;5053110;28;19944;-50
2023/09/14 13:33:16;;;;;;;;;;;23.00;93.90;;;;;;5053016;28;19909;-53
2023/09/14 13:35:42;;;;;;;;;;;23.00;94.00;;;;;;5056233;28;20403;-49
2023/09/14 13:38:08;;;;;;;;;;;23.00;93.90;;;;;;5056213;28;19915;-50
2023/09/14 13:40:33;;;;;;;;;;;23.00;93.90;;;;;;5056099;28;19909;-53
2023/09/14 13:43:00;;;;;;;;;;;23.00;93.90;;;;;;5056116;28;19909;-50
2023/09/14 13:45:27;;;;;;;;;;;23.00;93.90;;;;;;5056237;28;19917;-53
2023/09/14 13:47:52;;;;;;;;;;;23.00;93.80;;;;;;5056273;28;20360;-51
2023/09/14 13:50:19;;;;;;;;;;;23.00;93.90;;;;;;5056165;28;19963;-50
2023/09/14 13:52:44;;;;;;;;;;;23.00;93.90;;;;;;5056088;28;19916;-51
2023/09/14 13:55:10;;;;;;;;;;;23.00;93.90;;;;;;5056440;28;19909;-54
2023/09/14 13:57:36;;;;;;;;;;;23.00;93.90;;;;;;5056071;28;19913;-51
2023/09/14 14:00:08;;;;;;;;;;;23.00;94.00;;;;;;5056376;28;19963;-50
2023/09/14 14:02:34;;;;;;;;;;;23.00;93.90;;;;;;5056041;28;19917;-49
2023/09/14 14:05:00;;;;;;;;;;;23.00;93.90;;;;;;5055525;28;19924;-53
2023/09/14 14:07:29;;;;;;;;;;;23.00;93.90;;;;;;5055519;28;19913;-53
2023/09/14 14:09:54;;;;;;;;;;;23.00;93.90;;;;;;5037678;28;20366;-53
2023/09/14 14:12:20;;;;;;;;;;;23.00;93.90;;;;;;5037512;28;19991;-48